createdAt,value
2019-05-10T00:02:46.192Z,10.59
2019-05-10T00:08:07.252Z,10.63
2019-05-10T00:13:12.352Z,10.60
2019-05-10T00:18:15.712Z,10.60
2019-05-10T00:23:19.054Z,10.57
2019-05-10T00:28:22.378Z,10.57
2019-05-10T00:33:25.733Z,10.53
2019-05-10T00:38:29.101Z,10.49
2019-05-10T00:43:32.473Z,10.52
2019-05-10T00:48:35.952Z,10.54
2019-05-10T00:53:39.296Z,10.51
2019-05-10T00:58:42.635Z,10.46
2019-05-10T01:03:46.022Z,10.49
2019-05-10T01:08:49.488Z,10.47
2019-05-10T01:13:52.835Z,10.46
2019-05-10T01:18:56.184Z,10.40
2019-05-10T01:23:59.528Z,10.40
2019-05-10T01:29:02.907Z,10.38
2019-05-10T01:34:06.248Z,10.34
2019-05-10T01:39:09.597Z,10.31
2019-05-10T01:44:12.935Z,10.30
2019-05-10T01:49:16.372Z,10.33
2019-05-10T01:54:19.708Z,10.39
2019-05-10T01:59:23.066Z,10.39
2019-05-10T02:04:26.437Z,10.39
2019-05-10T02:09:33.092Z,10.37
2019-05-10T02:14:34.862Z,10.37
2019-05-10T02:19:38.208Z,10.44
2019-05-10T02:24:41.572Z,10.45
2019-05-10T02:29:44.989Z,10.43
2019-05-10T02:34:48.322Z,10.43
2019-05-10T02:39:51.981Z,10.43
2019-05-10T02:44:55.280Z,10.39
2019-05-10T02:49:59.406Z,10.31
2019-05-10T02:55:03.293Z,10.30
2019-05-10T03:00:07.512Z,10.31
2019-05-10T03:05:10.941Z,10.29
2019-05-10T03:10:14.458Z,10.33
2019-05-10T03:15:17.984Z,10.32
2019-05-10T03:20:22.686Z,10.24
2019-05-10T03:25:26.130Z,10.03
2019-05-10T03:30:30.832Z,9.78
2019-05-10T03:35:34.389Z,9.79
2019-05-10T03:40:37.805Z,9.79
2019-05-10T03:45:41.195Z,9.70
2019-05-10T03:50:45.266Z,9.61
2019-05-10T03:55:48.609Z,9.62
2019-05-10T04:00:51.974Z,9.54
2019-05-10T04:05:55.529Z,9.53
2019-05-10T04:10:58.946Z,9.46
2019-05-10T04:16:02.491Z,9.42
2019-05-10T04:21:05.825Z,9.36
2019-05-10T04:26:09.170Z,9.25
2019-05-10T04:31:12.509Z,9.19
2019-05-10T04:36:15.894Z,9.25
2019-05-10T04:41:19.230Z,9.22
2019-05-10T04:46:22.626Z,9.32
2019-05-10T04:51:26.055Z,9.23
2019-05-10T04:56:29.485Z,9.31
2019-05-10T05:01:32.865Z,9.43
2019-05-10T05:06:36.196Z,9.41
2019-05-10T05:11:39.599Z,9.51
2019-05-10T05:16:42.947Z,9.49
2019-05-10T05:21:46.384Z,9.54
2019-05-10T05:26:49.722Z,9.51
2019-05-10T05:31:54.064Z,9.63
2019-05-10T05:36:58.518Z,9.77
2019-05-10T05:42:01.899Z,9.77
2019-05-10T05:47:05.259Z,9.66
2019-05-10T05:52:08.695Z,9.91
2019-05-10T05:57:12.065Z,10.13
2019-05-10T06:02:15.399Z,10.26
2019-05-10T06:07:18.854Z,10.41
2019-05-10T06:12:22.207Z,10.35
2019-05-10T06:17:29.362Z,10.46
2019-05-10T06:22:30.806Z,10.55
2019-05-10T06:27:35.315Z,10.42
2019-05-10T06:32:39.470Z,10.57
2019-05-10T06:37:42.918Z,10.42
2019-05-10T06:42:46.340Z,10.54
2019-05-10T06:53:10.507Z,10.62
2019-05-10T06:58:11.987Z,10.66
2019-05-10T07:03:15.257Z,10.80
2019-05-10T07:08:20.493Z,10.83
2019-05-10T07:13:23.604Z,11.14
2019-05-10T07:18:26.964Z,11.20
2019-05-10T07:23:30.400Z,11.17
2019-05-10T07:28:33.629Z,11.29
2019-05-10T07:33:40.012Z,11.54
2019-05-10T07:38:42.251Z,11.67
2019-05-10T07:43:48.018Z,11.78
2019-05-10T07:48:53.359Z,12.26
2019-05-10T07:53:56.905Z,11.78
2019-05-10T07:59:00.883Z,11.72
2019-05-10T08:04:04.214Z,12.06
2019-05-10T08:09:09.629Z,12.34
2019-05-10T08:14:13.181Z,12.82
2019-05-10T08:19:16.477Z,12.42
2019-05-10T08:24:22.045Z,12.42
2019-05-10T08:29:24.793Z,12.75
2019-05-10T08:34:28.970Z,13.05
2019-05-10T08:39:43.937Z,13.66
2019-05-10T08:44:38.132Z,13.52
2019-05-10T08:49:55.331Z,13.54
2019-05-10T08:54:46.843Z,13.94
2019-05-10T08:59:54.245Z,13.72
2019-05-10T09:04:55.162Z,13.19
2019-05-10T09:09:58.455Z,13.82
2019-05-10T09:15:06.330Z,13.91
2019-05-10T09:20:14.044Z,13.43
2019-05-10T09:25:13.935Z,13.39
2019-05-10T09:30:21.992Z,13.92
2019-05-10T09:35:25.298Z,13.35
2019-05-10T09:40:28.664Z,13.89
2019-05-10T09:45:32.590Z,13.55
2019-05-10T09:50:42.078Z,13.54
2019-05-10T09:55:45.698Z,14.19
2019-05-10T10:00:48.341Z,14.19
2019-05-10T10:05:55.350Z,14.65
2019-05-10T10:11:01.278Z,14.81
2019-05-10T10:16:04.017Z,14.91
2019-05-10T10:21:06.126Z,15.06
2019-05-10T10:26:12.757Z,14.97
2019-05-10T10:31:26.229Z,14.97
2019-05-10T10:36:19.495Z,14.76
2019-05-10T10:41:31.190Z,14.63
2019-05-10T10:46:28.150Z,14.34
2019-05-10T10:51:34.063Z,14.56
2019-05-10T10:56:37.406Z,15.13
2019-05-10T11:01:49.433Z,15.02
2019-05-10T11:06:45.946Z,14.88
2019-05-10T11:11:51.569Z,14.99
2019-05-10T11:16:57.051Z,14.88
2019-05-10T11:22:04.386Z,14.99
2019-05-10T11:27:07.306Z,15.14
2019-05-10T11:32:15.791Z,15.35
2019-05-10T11:37:15.982Z,15.71
2019-05-10T11:42:21.195Z,15.82
2019-05-10T11:47:27.029Z,16.24
2019-05-10T11:52:34.879Z,15.60
2019-05-10T11:57:34.460Z,16.32
2019-05-10T12:02:45.901Z,15.77
2019-05-10T12:07:46.023Z,15.48
2019-05-10T12:13:01.654Z,15.42
2019-05-10T12:17:58.980Z,15.40
2019-05-10T12:22:57.857Z,15.54
2019-05-10T12:28:01.357Z,15.51
2019-05-10T12:33:09.238Z,16.42
2019-05-10T12:38:11.296Z,16.52
2019-05-10T12:43:14.628Z,16.02
2019-05-10T12:48:17.904Z,15.62
2019-05-10T12:53:21.543Z,16.62
2019-05-10T12:58:24.901Z,16.47
2019-05-10T13:03:31.760Z,16.51
2019-05-10T13:08:33.222Z,15.99
2019-05-10T13:13:36.525Z,15.53
2019-05-10T13:18:50.844Z,16.66
2019-05-10T13:23:44.905Z,16.50
2019-05-10T13:28:48.237Z,16.33
2019-05-10T13:33:51.603Z,16.41
2019-05-10T13:38:54.887Z,16.26
2019-05-10T13:44:04.935Z,16.58
2019-05-10T13:49:03.220Z,16.57
2019-05-10T13:54:06.527Z,16.84
2019-05-10T13:59:18.017Z,16.16
2019-05-10T14:04:14.865Z,15.89
2019-05-10T14:09:20.964Z,17.18
2019-05-10T14:14:26.640Z,16.75
2019-05-10T14:19:28.286Z,17.76
2019-05-10T14:24:31.592Z,17.70
2019-05-10T14:29:36.867Z,16.84
2019-05-10T14:34:44.081Z,16.45
2019-05-10T14:39:44.933Z,16.27
2019-05-10T14:44:48.233Z,16.44
2019-05-10T14:49:51.529Z,16.09
2019-05-10T14:54:56.741Z,16.18
2019-05-10T14:59:59.837Z,15.90
2019-05-10T15:05:08.690Z,15.75
2019-05-10T15:10:08.943Z,15.73
2019-05-10T15:15:12.249Z,15.34
2019-05-10T15:20:15.612Z,15.32
2019-05-10T15:25:18.919Z,15.62
2019-05-10T15:30:22.382Z,15.92
2019-05-10T15:35:25.687Z,16.96
2019-05-10T15:40:28.971Z,16.28
2019-05-10T15:45:32.281Z,16.04
2019-05-10T15:50:38.563Z,16.45
2019-05-10T15:55:40.602Z,16.28
2019-05-10T16:00:43.898Z,15.81
2019-05-10T16:05:59.846Z,15.84
2019-05-10T16:10:52.234Z,15.61
2019-05-10T16:15:57.834Z,15.59
2019-05-10T16:21:00.565Z,15.42
2019-05-10T16:26:03.870Z,15.37
2019-05-10T16:31:07.178Z,15.44
2019-05-10T16:36:10.544Z,15.40
2019-05-10T16:41:13.854Z,15.47
2019-05-10T16:46:17.178Z,15.55
2019-05-10T16:51:20.459Z,15.46
2019-05-10T16:56:23.758Z,15.26
2019-05-10T17:01:27.772Z,15.14
2019-05-10T17:06:35.450Z,15.05
2019-05-10T17:11:36.361Z,14.96
2019-05-10T17:16:39.648Z,14.92
2019-05-10T17:21:42.966Z,14.95
2019-05-10T17:26:46.271Z,14.99
2019-05-10T17:31:49.578Z,14.92
2019-05-10T17:36:57.926Z,14.77
2019-05-10T17:42:02.970Z,14.64
2019-05-10T17:47:02.987Z,14.45
2019-05-10T17:52:06.296Z,14.46
2019-05-10T17:57:10.645Z,14.25
2019-05-10T18:02:14.625Z,14.18
2019-05-10T18:07:18.013Z,14.13
2019-05-10T18:12:26.575Z,14.11
2019-05-10T18:17:27.627Z,14.11
2019-05-10T18:22:42.250Z,14.01
2019-05-10T18:27:36.036Z,13.91
2019-05-10T18:32:39.304Z,13.93
2019-05-10T18:37:42.737Z,13.87
2019-05-10T18:42:46.049Z,13.69
2019-05-10T18:47:49.363Z,13.67
2019-05-10T18:52:52.692Z,13.59
2019-05-10T18:57:55.995Z,13.52
2019-05-10T19:02:59.288Z,13.32
2019-05-10T19:08:05.633Z,13.15
2019-05-10T19:13:08.073Z,12.68
2019-05-10T19:18:11.529Z,12.88
2019-05-10T19:23:19.528Z,12.97
2019-05-10T19:28:21.068Z,12.91
2019-05-10T19:33:29.775Z,12.65
2019-05-10T19:38:29.937Z,12.66
2019-05-10T19:43:33.234Z,12.41
2019-05-10T19:48:37.019Z,12.35
2019-05-10T19:53:42.545Z,11.87
2019-05-10T19:58:48.911Z,11.74
2019-05-10T20:03:50.427Z,11.30
2019-05-10T20:08:53.743Z,11.39
2019-05-10T20:13:57.050Z,11.59
2019-05-10T20:19:00.389Z,11.43
2019-05-10T20:24:03.683Z,11.53
2019-05-10T20:29:06.979Z,11.34
2019-05-10T20:34:10.278Z,11.19
2019-05-10T20:39:13.570Z,10.83
2019-05-10T20:44:18.260Z,10.74
2019-05-10T20:49:21.698Z,10.74
2019-05-10T20:54:24.933Z,10.20
2019-05-10T20:59:28.271Z,10.17
2019-05-10T21:04:31.566Z,10.59
2019-05-10T21:09:34.861Z,10.62
2019-05-10T21:14:38.152Z,10.43
2019-05-10T21:19:41.471Z,10.37
2019-05-10T21:24:44.759Z,10.13
2019-05-10T21:29:48.090Z,9.96
2019-05-10T21:34:51.382Z,9.80
2019-05-10T21:39:54.650Z,9.69
2019-05-10T21:44:57.944Z,9.59
2019-05-10T21:50:01.262Z,9.48
2019-05-10T21:55:04.938Z,9.44
2019-05-10T22:00:08.918Z,9.02
2019-05-10T22:05:12.539Z,9.26
2019-05-10T22:10:16.053Z,9.28
2019-05-10T22:15:19.433Z,9.21
2019-05-10T22:20:22.784Z,9.20
2019-05-10T22:25:26.110Z,9.22
2019-05-10T22:30:29.446Z,9.23
2019-05-10T22:35:32.815Z,9.31
2019-05-10T22:40:36.156Z,9.24
2019-05-10T22:45:39.496Z,9.20
2019-05-10T22:50:42.891Z,9.13
2019-05-10T22:55:46.217Z,9.03
2019-05-10T23:00:49.539Z,8.96
2019-05-10T23:05:52.866Z,9.05
2019-05-10T23:10:56.195Z,9.05
2019-05-10T23:16:33.802Z,9.05
2019-05-10T23:21:37.062Z,9.03
2019-05-10T23:26:40.395Z,9.12
2019-05-10T23:31:43.738Z,9.15
2019-05-10T23:36:47.073Z,9.11
2019-05-10T23:41:50.403Z,9.08
2019-05-10T23:46:53.813Z,9.06
2019-05-10T23:51:57.195Z,9.04
2019-05-10T23:57:00.712Z,9.05
